San Francisco, California
Traffic Map
Current Weather Conditions
San Francisco, California
Few Clouds
Few Clouds
18°
Feels Like: 18°
Wind Chill: 18° Ceiling: Unl
Heat Index: 18° Visibility: 10mi
Dew Point: 15° Wind: 14mph
Humidity: 84% Direction: 310° (NW)
Pressure: 29.78in Gusts: 0mph
Raw Report DataKSFO 020356Z 31012KT 10SM FEW010 18/15 A2978 RMK AO2 SLP084 T01780150 $
Traffic Incident Summary
Active as of:
Severity:
Category:
InformationThere was an issue retrieving the traffic information for this location. Please try a different location or try again shortly.
Advertisements
Track Severe Weather on mobile